Time;durP1;ratioP1;P1;durP2;ratioP2;P2;SDS_P1;SDS_P2;PMS_P1;PMS_P2;Temp;Humidity;BMP_temperature;BMP_pressure;BME280_temperature;BME280_humidity;BME280_pressure;Samples;Min_cycle;Max_cycle;Signal;HPM_P1;HPM_P2
2022/01/19 00:00:52;;;;;;;;;;;1.20;99.90;;;;;;5076714;28;20357;-44
2022/01/19 00:03:18;;;;;;;;;;;1.20;99.90;;;;;;5076769;28;19932;-42
2022/01/19 00:05:44;;;;;;;;;;;1.20;99.90;;;;;;5076432;28;19912;-42
2022/01/19 00:08:16;;;;;;;;;;;1.20;99.90;;;;;;5076572;28;19904;-42
2022/01/19 00:10:42;;;;;;;;;;;1.10;99.90;;;;;;5076454;28;19916;-42
2022/01/19 00:13:07;;;;;;;;;;;1.10;99.90;;;;;;5076548;28;20014;-42
2022/01/19 00:15:33;;;;;;;;;;;1.00;99.90;;;;;;5076249;28;20357;-41
2022/01/19 00:17:59;;;;;;;;;;;1.10;99.90;;;;;;5076364;28;19955;-41
2022/01/19 00:20:26;;;;;;;;;;;1.10;99.90;;;;;;5076156;28;20029;-41
2022/01/19 00:22:52;;;;;;;;;;;1.10;99.90;;;;;;5076393;28;19951;-41
2022/01/19 00:25:18;;;;;;;;;;;1.10;99.90;;;;;;5076495;28;19947;-42
2022/01/19 00:27:43;;;;;;;;;;;1.10;99.90;;;;;;5076325;28;20026;-41
2022/01/19 00:30:09;;;;;;;;;;;1.10;99.90;;;;;;5076096;28;20330;-41
2022/01/19 00:32:35;;;;;;;;;;;1.00;99.90;;;;;;5058116;28;19912;-42
2022/01/19 00:35:01;;;;;;;;;;;1.10;99.90;;;;;;5076240;28;19905;-42
2022/01/19 00:37:27;;;;;;;;;;;1.00;99.90;;;;;;5076162;28;20011;-42
2022/01/19 00:39:52;;;;;;;;;;;1.10;99.90;;;;;;5075878;28;20311;-43
2022/01/19 00:42:18;;;;;;;;;;;1.00;99.90;;;;;;5075822;28;19908;-42
2022/01/19 00:44:44;;;;;;;;;;;1.00;99.90;;;;;;5075978;28;20258;-43
2022/01/19 00:47:09;;;;;;;;;;;0.90;99.90;;;;;;5075991;28;19944;-43
2022/01/19 00:49:35;;;;;;;;;;;0.90;99.90;;;;;;5075551;28;20282;-43
2022/01/19 00:52:00;;;;;;;;;;;0.90;99.90;;;;;;5076121;28;20415;-42
2022/01/19 00:54:26;;;;;;;;;;;0.90;99.90;;;;;;5075844;28;19981;-42
2022/01/19 00:56:52;;;;;;;;;;;0.80;99.90;;;;;;5075814;28;19912;-42
2022/01/19 00:59:17;;;;;;;;;;;0.90;99.90;;;;;;5076078;28;19908;-42
2022/01/19 01:01:43;;;;;;;;;;;0.80;99.90;;;;;;5076042;28;20246;-44
2022/01/19 01:04:08;;;;;;;;;;;0.70;99.90;;;;;;5075730;28;19912;-42
2022/01/19 01:06:34;;;;;;;;;;;0.80;99.90;;;;;;5075556;28;19957;-42
2022/01/19 01:08:59;;;;;;;;;;;0.70;99.90;;;;;;5075487;28;19908;-42
2022/01/19 01:11:35;;;;;;;;;;;0.80;99.90;;;;;;5075371;28;19912;-42
2022/01/19 01:18:57;;;;;;;;;;;0.70;99.90;;;;;;5075311;28;19905;-42
2022/01/19 01:21:23;;;;;;;;;;;0.70;99.90;;;;;;5075242;28;19904;-42
2022/01/19 01:23:49;;;;;;;;;;;0.70;99.90;;;;;;5075186;28;20342;-41
2022/01/19 01:26:14;;;;;;;;;;;0.70;99.90;;;;;;5075124;28;20365;-42
2022/01/19 01:28:40;;;;;;;;;;;0.70;99.90;;;;;;5075102;28;19912;-42
2022/01/19 01:31:08;;;;;;;;;;;0.70;99.90;;;;;;5074628;28;19912;-42
2022/01/19 01:33:34;;;;;;;;;;;0.70;99.90;;;;;;5075411;28;19904;-42
2022/01/19 01:36:00;;;;;;;;;;;0.70;99.90;;;;;;5075345;28;20378;-42
2022/01/19 01:38:26;;;;;;;;;;;0.70;99.90;;;;;;5075320;28;19938;-42
2022/01/19 01:40:51;;;;;;;;;;;0.70;99.90;;;;;;5074640;28;20384;-42
2022/01/19 01:43:17;;;;;;;;;;;0.70;99.90;;;;;;5074743;28;19955;-42
2022/01/19 01:45:45;;;;;;;;;;;0.60;99.90;;;;;;5074829;28;19904;-43
2022/01/19 01:48:15;;;;;;;;;;;0.60;99.90;;;;;;5074654;28;19911;-42
2022/01/19 01:53:27;;;;;;;;;;;0.60;99.90;;;;;;5074431;28;19953;-42
2022/01/19 01:55:57;;;;;;;;;;;0.50;99.90;;;;;;5074653;28;19904;-42
2022/01/19 01:58:23;;;;;;;;;;;0.60;99.90;;;;;;5074309;28;19912;-42
2022/01/19 02:00:48;;;;;;;;;;;0.50;99.90;;;;;;5074594;28;19927;-43
2022/01/19 02:03:14;;;;;;;;;;;0.50;99.90;;;;;;5074496;28;20006;-42
2022/01/19 02:05:53;;;;;;;;;;;0.50;99.90;;;;;;5074534;28;19905;-42
2022/01/19 02:08:22;;;;;;;;;;;0.50;99.90;;;;;;5074559;28;19911;-42
2022/01/19 02:16:25;;;;;;;;;;;0.50;99.90;;;;;;5074551;28;20004;-41
2022/01/19 02:21:40;;;;;;;;;;;0.50;99.90;;;;;;5074130;28;19964;-41
2022/01/19 02:24:08;;;;;;;;;;;0.60;99.90;;;;;;5073988;28;19924;-41
2022/01/19 02:26:51;;;;;;;;;;;0.50;99.90;;;;;;5073972;28;19904;-41
2022/01/19 02:40:17;;;;;;;;;;;0.40;99.90;;;;;;5074178;28;20362;-42
2022/01/19 02:50:30;;;;;;;;;;;0.40;99.90;;;;;;5073688;28;20262;-42
2022/01/19 02:52:56;;;;;;;;;;;0.40;99.90;;;;;;5073945;28;19904;-42
2022/01/19 02:55:22;;;;;;;;;;;0.40;99.90;;;;;;5073550;28;19999;-41
2022/01/19 02:57:48;;;;;;;;;;;0.50;99.90;;;;;;5073975;28;19909;-42
2022/01/19 03:08:46;;;;;;;;;;;0.30;99.90;;;;;;5077689;28;19928;-42
2022/01/19 03:11:15;;;;;;;;;;;0.20;99.90;;;;;;5077783;28;19916;-43
2022/01/19 03:13:40;;;;;;;;;;;0.30;99.90;;;;;;5077372;28;19904;-42
2022/01/19 03:16:06;;;;;;;;;;;0.30;99.90;;;;;;5077377;28;19912;-42
2022/01/19 03:18:32;;;;;;;;;;;0.20;99.90;;;;;;5077345;28;19905;-42
2022/01/19 03:20:57;;;;;;;;;;;0.20;99.90;;;;;;5077583;28;19915;-41
2022/01/19 03:23:23;;;;;;;;;;;0.20;99.90;;;;;;5077458;28;19923;-42
2022/01/19 03:25:49;;;;;;;;;;;0.30;99.90;;;;;;5077258;28;20355;-42
2022/01/19 03:28:14;;;;;;;;;;;0.10;99.90;;;;;;5077506;28;19910;-41
2022/01/19 03:30:40;;;;;;;;;;;0.20;99.90;;;;;;5077066;28;19932;-41
2022/01/19 03:33:06;;;;;;;;;;;0.20;99.90;;;;;;5077127;28;19904;-41
2022/01/19 03:35:32;;;;;;;;;;;0.20;99.90;;;;;;5077117;28;19904;-42
2022/01/19 03:37:58;;;;;;;;;;;0.20;99.90;;;;;;5077008;28;19915;-42
2022/01/19 03:40:24;;;;;;;;;;;0.20;99.90;;;;;;5077251;28;19905;-42
2022/01/19 03:42:50;;;;;;;;;;;0.20;99.90;;;;;;5059374;28;19905;-42
2022/01/19 03:45:15;;;;;;;;;;;0.40;99.90;;;;;;5077095;28;20408;-42
2022/01/19 03:47:46;;;;;;;;;;;0.50;99.90;;;;;;5076724;28;19904;-42
2022/01/19 03:50:11;;;;;;;;;;;0.60;99.90;;;;;;5076971;28;19979;-41
2022/01/19 03:52:37;;;;;;;;;;;0.60;99.90;;;;;;5077250;28;19919;-42
2022/01/19 03:55:02;;;;;;;;;;;0.60;99.90;;;;;;5058947;28;19905;-42
2022/01/19 03:57:28;;;;;;;;;;;0.70;99.90;;;;;;5077153;28;19908;-43
2022/01/19 03:59:53;;;;;;;;;;;0.60;99.90;;;;;;5076854;28;19947;-42
2022/01/19 04:02:19;;;;;;;;;;;0.70;99.90;;;;;;5076548;28;19905;-43
2022/01/19 04:05:01;;;;;;;;;;;0.80;99.90;;;;;;5076517;28;20262;-43
2022/01/19 04:07:27;;;;;;;;;;;0.70;99.90;;;;;;5073383;28;20048;-43
2022/01/19 04:09:52;;;;;;;;;;;0.90;99.90;;;;;;5071121;28;19909;-42
2022/01/19 04:12:26;;;;;;;;;;;0.90;99.90;;;;;;5056353;28;19937;-41
2022/01/19 04:14:52;;;;;;;;;;;0.80;99.90;;;;;;5069384;28;19912;-41
2022/01/19 04:17:18;;;;;;;;;;;0.80;99.90;;;;;;5075760;28;20393;-42
2022/01/19 04:19:46;;;;;;;;;;;1.00;99.90;;;;;;5076513;28;20003;-42
2022/01/19 04:22:13;;;;;;;;;;;1.10;99.90;;;;;;5075251;28;19916;-42
2022/01/19 04:24:39;;;;;;;;;;;1.10;99.90;;;;;;5069845;28;20298;-44
2022/01/19 04:29:46;;;;;;;;;;;1.30;99.90;;;;;;5055335;28;19913;-41
2022/01/19 04:32:17;;;;;;;;;;;1.40;99.90;;;;;;5054964;28;19917;-42
2022/01/19 04:34:45;;;;;;;;;;;1.40;99.90;;;;;;5063007;28;19912;-42
2022/01/19 05:07:05;;;;;;;;;;;0.50;99.90;;;;;;5031145;28;20442;-41
2022/01/19 05:14:43;;;;;;;;;;;0.70;99.90;;;;;;5054693;28;19916;-42
2022/01/19 05:17:09;;;;;;;;;;;0.80;99.90;;;;;;5055080;28;20340;-40
2022/01/19 05:19:34;;;;;;;;;;;0.90;99.90;;;;;;5055369;28;20014;-43
2022/01/19 05:22:00;;;;;;;;;;;1.00;99.90;;;;;;5063194;28;19913;-44
2022/01/19 05:24:25;;;;;;;;;;;0.90;99.90;;;;;;5061806;28;19928;-43
2022/01/19 05:26:52;;;;;;;;;;;1.10;99.90;;;;;;5054853;28;20339;-41
2022/01/19 05:29:18;;;;;;;;;;;1.30;99.90;;;;;;5069289;28;19938;-43
2022/01/19 05:31:43;;;;;;;;;;;1.30;99.90;;;;;;5068727;28;20014;-43
2022/01/19 05:34:09;;;;;;;;;;;1.30;99.90;;;;;;5058529;28;19928;-43
2022/01/19 05:36:35;;;;;;;;;;;1.30;99.90;;;;;;5057209;28;19959;-43
2022/01/19 05:39:04;;;;;;;;;;;1.50;99.90;;;;;;5074370;28;19908;-42
2022/01/19 05:41:29;;;;;;;;;;;1.50;99.90;;;;;;5074313;28;20003;-42
2022/01/19 05:43:55;;;;;;;;;;;1.50;99.90;;;;;;5074465;28;20419;-42
2022/01/19 05:46:21;;;;;;;;;;;1.50;99.90;;;;;;5069526;28;19950;-43
2022/01/19 05:48:46;;;;;;;;;;;1.40;99.90;;;;;;5056421;28;19916;-42
2022/01/19 05:51:12;;;;;;;;;;;1.50;99.90;;;;;;5070443;28;20294;-42
2022/01/19 05:53:37;;;;;;;;;;;1.50;99.90;;;;;;5053918;28;19919;-42
2022/01/19 05:56:03;;;;;;;;;;;1.60;99.90;;;;;;5061787;28;19908;-43
2022/01/19 05:58:28;;;;;;;;;;;1.60;99.90;;;;;;5073156;28;19908;-42
2022/01/19 06:00:54;;;;;;;;;;;1.60;99.90;;;;;;5072402;28;20348;-42
2022/01/19 06:03:19;;;;;;;;;;;1.60;99.90;;;;;;5073400;28;20050;-43
2022/01/19 06:05:45;;;;;;;;;;;1.50;99.90;;;;;;5073082;28;19954;-42
2022/01/19 06:08:42;;;;;;;;;;;1.30;99.90;;;;;;5073575;28;19909;-42
2022/01/19 06:10:56;;;;;;;;;;;1.20;99.90;;;;;;5072413;28;20027;-42
2022/01/19 06:13:22;;;;;;;;;;;1.20;99.90;;;;;;5073703;28;20370;-42
2022/01/19 06:15:48;;;;;;;;;;;1.30;99.90;;;;;;5055968;28;20321;-44
2022/01/19 06:18:15;;;;;;;;;;;1.40;99.90;;;;;;5073469;28;19954;-43
2022/01/19 06:20:40;;;;;;;;;;;1.20;99.90;;;;;;5073709;28;19909;-43
2022/01/19 06:23:06;;;;;;;;;;;1.30;99.90;;;;;;5073621;28;19921;-42
2022/01/19 06:25:32;;;;;;;;;;;1.50;99.90;;;;;;5073383;28;19962;-42
2022/01/19 06:27:58;;;;;;;;;;;1.60;99.90;;;;;;5073334;28;19919;-43
2022/01/19 06:30:23;;;;;;;;;;;1.60;99.90;;;;;;5073215;28;19919;-42
2022/01/19 06:32:49;;;;;;;;;;;1.40;99.90;;;;;;5073505;28;19974;-42
2022/01/19 06:35:14;;;;;;;;;;;1.50;99.90;;;;;;5073573;28;19916;-42
2022/01/19 06:37:40;;;;;;;;;;;1.60;99.90;;;;;;5073204;28;20263;-42
2022/01/19 06:40:07;;;;;;;;;;;1.60;99.90;;;;;;5072662;28;19959;-41
2022/01/19 06:42:32;;;;;;;;;;;1.60;99.90;;;;;;5073446;28;19909;-43
2022/01/19 06:44:58;;;;;;;;;;;1.60;99.90;;;;;;5073211;28;19919;-42
2022/01/19 06:47:23;;;;;;;;;;;1.70;99.90;;;;;;5073446;28;19909;-41
2022/01/19 06:49:49;;;;;;;;;;;1.70;99.90;;;;;;5073207;28;20350;-45
2022/01/19 06:52:14;;;;;;;;;;;1.70;99.90;;;;;;5073325;28;19921;-43
2022/01/19 06:54:40;;;;;;;;;;;1.70;99.90;;;;;;5073084;28;20367;-42
2022/01/19 06:57:05;;;;;;;;;;;1.80;99.90;;;;;;5073046;28;20317;-42
2022/01/19 06:59:31;;;;;;;;;;;1.90;99.90;;;;;;5073404;28;19915;-43
2022/01/19 07:01:56;;;;;;;;;;;2.00;99.90;;;;;;5072939;28;19916;-41
2022/01/19 07:04:22;;;;;;;;;;;2.00;99.90;;;;;;5054745;28;19909;-42
2022/01/19 07:06:47;;;;;;;;;;;2.00;99.90;;;;;;5073215;28;19912;-43
2022/01/19 07:09:13;;;;;;;;;;;2.00;99.90;;;;;;5072461;28;19915;-41
2022/01/19 07:11:39;;;;;;;;;;;2.00;99.90;;;;;;5073137;28;19974;-45
2022/01/19 07:14:04;;;;;;;;;;;1.90;99.90;;;;;;5072737;28;19909;-42
2022/01/19 07:16:30;;;;;;;;;;;2.00;99.90;;;;;;5073196;28;20376;-42
2022/01/19 07:18:56;;;;;;;;;;;2.00;99.90;;;;;;5072999;28;19915;-42
2022/01/19 07:21:21;;;;;;;;;;;1.90;99.90;;;;;;5073415;28;20369;-42
2022/01/19 07:23:47;;;;;;;;;;;1.80;99.90;;;;;;5072033;28;19927;-42
2022/01/19 07:26:12;;;;;;;;;;;1.70;99.90;;;;;;5070954;28;19966;-44
2022/01/19 07:28:38;;;;;;;;;;;1.90;99.90;;;;;;5072722;28;19947;-43
2022/01/19 07:31:03;;;;;;;;;;;1.90;99.90;;;;;;5062402;28;19923;-44
2022/01/19 07:33:29;;;;;;;;;;;1.90;99.90;;;;;;5052612;28;19913;-42
2022/01/19 07:35:54;;;;;;;;;;;2.10;99.90;;;;;;5052494;28;19953;-44
2022/01/19 07:38:21;;;;;;;;;;;1.80;99.90;;;;;;5052705;28;19916;-43
2022/01/19 07:40:47;;;;;;;;;;;1.60;99.90;;;;;;5053260;28;20232;-43
2022/01/19 07:43:12;;;;;;;;;;;1.70;99.90;;;;;;5058140;28;19913;-42
2022/01/19 07:45:38;;;;;;;;;;;1.80;99.90;;;;;;5068743;28;19909;-43
2022/01/19 07:48:04;;;;;;;;;;;1.90;99.90;;;;;;5072661;28;19912;-45
2022/01/19 07:50:29;;;;;;;;;;;2.10;99.90;;;;;;5072357;28;19908;-44
2022/01/19 07:52:55;;;;;;;;;;;2.10;99.90;;;;;;5063791;28;19917;-45
2022/01/19 07:55:21;;;;;;;;;;;2.00;99.90;;;;;;5055962;28;19908;-42
2022/01/19 07:57:50;;;;;;;;;;;1.80;99.90;;;;;;5073612;28;19905;-41
2022/01/19 08:00:16;;;;;;;;;;;1.80;99.90;;;;;;5075789;28;19904;-42
2022/01/19 08:02:42;;;;;;;;;;;1.70;99.90;;;;;;5076052;28;19905;-41
2022/01/19 08:05:08;;;;;;;;;;;1.90;99.90;;;;;;5075357;28;19909;-47
2022/01/19 08:07:34;;;;;;;;;;;1.90;99.90;;;;;;5073547;28;19982;-46
2022/01/19 08:10:00;;;;;;;;;;;1.90;99.90;;;;;;5061981;28;19909;-41
2022/01/19 08:12:26;;;;;;;;;;;1.80;99.90;;;;;;5056002;28;20240;-41
2022/01/19 08:14:51;;;;;;;;;;;1.90;99.90;;;;;;5075390;28;19905;-41
2022/01/19 08:17:17;;;;;;;;;;;1.80;99.90;;;;;;5075538;28;19952;-43
2022/01/19 08:19:42;;;;;;;;;;;1.90;99.90;;;;;;5071137;28;19905;-43
2022/01/19 08:22:08;;;;;;;;;;;1.80;99.90;;;;;;5074615;28;20365;-43
2022/01/19 08:24:33;;;;;;;;;;;2.00;99.90;;;;;;5076048;28;19967;-43
2022/01/19 08:26:59;;;;;;;;;;;2.00;99.90;;;;;;5060652;28;19909;-41
2022/01/19 08:29:24;;;;;;;;;;;2.10;99.90;;;;;;5055271;28;19940;-42
2022/01/19 08:31:50;;;;;;;;;;;2.10;99.90;;;;;;5055674;28;19913;-42
2022/01/19 08:34:17;;;;;;;;;;;2.40;99.90;;;;;;5055483;28;19904;-41
2022/01/19 08:36:43;;;;;;;;;;;2.40;99.90;;;;;;5067744;28;20006;-45
2022/01/19 08:39:09;;;;;;;;;;;2.60;99.90;;;;;;5055177;28;19912;-42
2022/01/19 08:41:34;;;;;;;;;;;2.70;99.90;;;;;;5067013;28;19915;-43
2022/01/19 08:44:00;;;;;;;;;;;2.90;99.90;;;;;;5074326;28;19919;-40
2022/01/19 08:46:25;;;;;;;;;;;3.10;99.90;;;;;;5074590;28;20019;-42
2022/01/19 08:48:51;;;;;;;;;;;3.00;99.90;;;;;;5066313;28;20355;-45
2022/01/19 08:51:16;;;;;;;;;;;3.20;99.90;;;;;;5073165;28;20015;-45
2022/01/19 08:53:42;;;;;;;;;;;3.40;99.90;;;;;;5073080;28;19967;-43
2022/01/19 08:56:07;;;;;;;;;;;3.50;99.90;;;;;;5074261;28;19967;-44
2022/01/19 08:58:33;;;;;;;;;;;3.50;99.90;;;;;;5073704;28;19916;-45
2022/01/19 09:00:58;;;;;;;;;;;3.20;99.90;;;;;;5070685;28;19908;-42
2022/01/19 09:03:24;;;;;;;;;;;3.40;99.90;;;;;;5052446;28;19912;-47
2022/01/19 09:05:49;;;;;;;;;;;3.40;99.90;;;;;;5057446;28;19952;-44
2022/01/19 09:08:15;;;;;;;;;;;3.50;99.90;;;;;;5075250;28;20444;-44
2022/01/19 09:10:41;;;;;;;;;;;3.30;99.90;;;;;;5075672;28;19950;-43
2022/01/19 09:13:09;;;;;;;;;;;3.30;99.90;;;;;;5074734;28;20270;-45
2022/01/19 09:15:35;;;;;;;;;;;3.10;99.90;;;;;;5075053;28;20402;-43
2022/01/19 09:18:01;;;;;;;;;;;3.10;99.90;;;;;;5071675;28;20035;-45
2022/01/19 09:20:26;;;;;;;;;;;3.20;99.90;;;;;;5054799;28;19999;-42
2022/01/19 09:22:52;;;;;;;;;;;3.30;99.90;;;;;;5064036;28;20026;-43
2022/01/19 09:25:17;;;;;;;;;;;3.30;99.90;;;;;;5065208;28;19931;-49
2022/01/19 09:27:43;;;;;;;;;;;3.30;99.90;;;;;;5063965;28;19908;-45
2022/01/19 09:30:10;;;;;;;;;;;3.20;99.90;;;;;;5067645;28;20367;-48
2022/01/19 09:32:36;;;;;;;;;;;3.00;99.90;;;;;;5074193;28;19916;-43
2022/01/19 09:35:07;;;;;;;;;;;2.90;99.90;;;;;;5074657;28;19971;-42
2022/01/19 09:37:34;;;;;;;;;;;3.00;99.90;;;;;;5079130;28;19920;-46
2022/01/19 09:39:59;;;;;;;;;;;3.30;99.90;;;;;;5081775;28;19912;-44
2022/01/19 09:42:25;;;;;;;;;;;3.40;99.90;;;;;;5075295;28;19912;-44
2022/01/19 09:44:52;;;;;;;;;;;3.70;99.90;;;;;;5064758;28;19919;-43
2022/01/19 09:47:18;;;;;;;;;;;4.10;99.90;;;;;;5076467;28;19950;-46
2022/01/19 09:49:44;;;;;;;;;;;3.90;99.90;;;;;;5068494;28;19912;-42
2022/01/19 09:52:09;;;;;;;;;;;4.20;99.90;;;;;;5062444;28;20003;-45
2022/01/19 09:54:35;;;;;;;;;;;4.30;99.90;;;;;;5082149;28;19912;-43
2022/01/19 09:57:01;;;;;;;;;;;4.60;99.90;;;;;;5081648;28;19909;-45
2022/01/19 09:59:26;;;;;;;;;;;4.70;99.90;;;;;;5070326;28;19997;-42
2022/01/19 10:01:52;;;;;;;;;;;4.70;99.90;;;;;;5061134;28;20006;-44
2022/01/19 10:04:18;;;;;;;;;;;4.80;99.90;;;;;;5061834;28;19919;-45
2022/01/19 10:06:44;;;;;;;;;;;4.90;99.90;;;;;;5063486;28;20369;-44
2022/01/19 10:09:09;;;;;;;;;;;5.10;99.90;;;;;;5069395;28;19999;-43
2022/01/19 10:17:06;;;;;;;;;;;5.40;99.90;;;;;;5056356;28;20054;-45
2022/01/19 10:19:50;;;;;;;;;;;5.30;99.90;;;;;;5054448;28;19940;-44
2022/01/19 10:22:20;;;;;;;;;;;5.40;99.90;;;;;;5053586;28;19909;-43
2022/01/19 10:24:53;;;;;;;;;;;5.40;99.90;;;;;;5053368;28;19921;-45
2022/01/19 10:27:37;;;;;;;;;;;5.50;99.90;;;;;;5053591;28;20341;-43
2022/01/19 10:30:03;;;;;;;;;;;5.70;99.90;;;;;;5053588;28;20007;-43
2022/01/19 10:32:29;;;;;;;;;;;5.70;99.90;;;;;;5053320;28;20008;-45
2022/01/19 10:34:55;;;;;;;;;;;5.90;99.90;;;;;;5053144;28;20385;-48
2022/01/19 10:37:21;;;;;;;;;;;6.00;99.90;;;;;;5053422;28;19909;-44
2022/01/19 10:39:51;;;;;;;;;;;5.90;99.90;;;;;;5053100;28;20375;-46
2022/01/19 10:42:18;;;;;;;;;;;6.00;99.90;;;;;;5053423;28;19909;-43
2022/01/19 10:44:45;;;;;;;;;;;6.20;99.90;;;;;;5053428;28;19947;-43
2022/01/19 10:47:11;;;;;;;;;;;6.20;99.90;;;;;;5053198;28;19908;-44
2022/01/19 10:49:46;;;;;;;;;;;6.30;99.90;;;;;;5053441;28;19916;-47
2022/01/19 10:52:24;;;;;;;;;;;6.40;99.90;;;;;;5052877;28;19916;-44
2022/01/19 10:54:50;;;;;;;;;;;6.50;99.90;;;;;;5035369;28;19916;-45
2022/01/19 10:57:15;;;;;;;;;;;6.60;99.90;;;;;;5034798;28;19909;-44
2022/01/19 10:59:41;;;;;;;;;;;6.80;99.90;;;;;;5053154;28;20030;-43
2022/01/19 11:02:09;;;;;;;;;;;6.90;99.90;;;;;;5053277;28;20318;-43
2022/01/19 11:04:39;;;;;;;;;;;7.10;99.90;;;;;;5035277;28;20270;-44
2022/01/19 11:07:09;;;;;;;;;;;7.20;99.90;;;;;;5052478;28;19909;-45
2022/01/19 11:09:44;;;;;;;;;;;7.30;99.90;;;;;;5034932;28;19999;-45
2022/01/19 11:12:13;;;;;;;;;;;7.40;99.90;;;;;;5035127;28;19917;-46
2022/01/19 11:14:40;;;;;;;;;;;7.70;99.90;;;;;;5052836;28;19944;-45
2022/01/19 11:17:06;;;;;;;;;;;7.70;99.90;;;;;;5052690;28;19913;-46
2022/01/19 11:19:35;;;;;;;;;;;7.50;99.90;;;;;;5052649;28;19915;-47
2022/01/19 11:22:14;;;;;;;;;;;7.10;99.90;;;;;;5052907;28;19915;-46
2022/01/19 11:24:42;;;;;;;;;;;7.00;99.90;;;;;;5053006;28;20012;-44
2022/01/19 11:27:08;;;;;;;;;;;7.00;99.90;;;;;;5053984;28;19909;-43
2022/01/19 11:29:34;;;;;;;;;;;6.60;99.90;;;;;;5056206;28;19949;-46
2022/01/19 11:32:11;;;;;;;;;;;6.60;99.90;;;;;;5056243;28;19917;-45
2022/01/19 11:34:42;;;;;;;;;;;6.60;99.90;;;;;;5056437;28;19971;-43
2022/01/19 11:37:08;;;;;;;;;;;6.80;99.90;;;;;;5055955;28;20047;-47
2022/01/19 11:39:34;;;;;;;;;;;7.20;99.90;;;;;;5038146;28;19916;-44
2022/01/19 11:42:01;;;;;;;;;;;7.10;99.90;;;;;;5055859;28;19909;-43
2022/01/19 11:44:32;;;;;;;;;;;6.70;99.90;;;;;;5055945;28;19908;-43
2022/01/19 11:46:59;;;;;;;;;;;6.60;99.90;;;;;;5056012;28;19920;-45
2022/01/19 11:49:43;;;;;;;;;;;6.80;99.90;;;;;;5056270;28;20228;-46
2022/01/19 11:52:08;;;;;;;;;;;6.90;99.90;;;;;;5055885;28;19971;-46
2022/01/19 11:54:34;;;;;;;;;;;7.20;99.90;;;;;;5056179;28;19908;-46
2022/01/19 11:57:04;;;;;;;;;;;7.20;99.90;;;;;;5056036;28;19909;-42
2022/01/19 11:59:30;;;;;;;;;;;6.90;99.90;;;;;;5055840;28;19957;-43
2022/01/19 12:02:14;;;;;;;;;;;6.70;99.90;;;;;;5056186;28;19961;-43
2022/01/19 12:04:39;;;;;;;;;;;6.80;99.90;;;;;;5056133;28;19913;-46
2022/01/19 12:07:25;;;;;;;;;;;7.00;99.90;;;;;;5055554;28;20229;-43
2022/01/19 12:09:55;;;;;;;;;;;6.90;99.90;;;;;;5055394;28;19920;-46
2022/01/19 12:12:23;;;;;;;;;;;6.90;99.90;;;;;;5055109;28;20011;-43
2022/01/19 12:14:51;;;;;;;;;;;7.10;99.90;;;;;;5037975;28;19986;-47
2022/01/19 12:17:26;;;;;;;;;;;7.10;99.90;;;;;;5055833;28;20065;-43
2022/01/19 12:19:52;;;;;;;;;;;6.90;99.90;;;;;;5055602;28;20335;-44
2022/01/19 12:22:20;;;;;;;;;;;7.00;99.90;;;;;;5037477;28;19909;-45
2022/01/19 12:24:54;;;;;;;;;;;7.10;99.90;;;;;;5055580;28;19909;-45
2022/01/19 12:27:20;;;;;;;;;;;7.10;99.90;;;;;;5054969;28;20278;-42
2022/01/19 12:29:45;;;;;;;;;;;7.00;99.90;;;;;;5055614;28;19923;-43
2022/01/19 12:32:15;;;;;;;;;;;7.00;99.90;;;;;;5037092;28;20451;-43
2022/01/19 12:34:44;;;;;;;;;;;7.10;99.90;;;;;;5054923;28;19908;-46
2022/01/19 12:37:10;;;;;;;;;;;7.10;99.90;;;;;;5055214;28;20000;-43
2022/01/19 12:39:37;;;;;;;;;;;7.00;99.90;;;;;;5055173;28;20000;-44
2022/01/19 12:42:13;;;;;;;;;;;6.90;99.90;;;;;;5055471;28;20375;-45
2022/01/19 12:44:39;;;;;;;;;;;6.90;99.90;;;;;;5055227;28;19913;-43
2022/01/19 12:47:24;;;;;;;;;;;6.90;99.90;;;;;;5037101;28;19909;-43
2022/01/19 12:49:57;;;;;;;;;;;7.10;99.90;;;;;;5054709;28;19909;-46
2022/01/19 12:52:25;;;;;;;;;;;7.40;99.90;;;;;;5037402;28;20300;-46
2022/01/19 12:54:52;;;;;;;;;;;7.30;99.90;;;;;;5054525;28;19951;-44
2022/01/19 12:57:18;;;;;;;;;;;7.40;99.90;;;;;;5036612;28;19909;-45
2022/01/19 12:59:44;;;;;;;;;;;7.30;99.90;;;;;;5054152;28;19963;-42
2022/01/19 13:02:14;;;;;;;;;;;7.20;99.90;;;;;;5054951;28;20093;-43
2022/01/19 13:04:40;;;;;;;;;;;7.20;99.90;;;;;;5054676;28;19936;-45
2022/01/19 13:07:26;;;;;;;;;;;7.30;99.90;;;;;;5054578;28;19963;-46
2022/01/19 13:10:02;;;;;;;;;;;7.30;99.90;;;;;;5054573;28;20252;-47
2022/01/19 13:12:37;;;;;;;;;;;7.40;99.90;;;;;;5054472;28;20425;-44
2022/01/19 13:15:02;;;;;;;;;;;7.60;99.90;;;;;;5054800;28;20365;-43
2022/01/19 13:17:45;;;;;;;;;;;7.60;99.90;;;;;;5054219;28;19959;-44
2022/01/19 13:20:12;;;;;;;;;;;7.60;99.90;;;;;;5054536;28;20394;-44
2022/01/19 13:22:49;;;;;;;;;;;7.60;99.90;;;;;;5054504;28;19920;-44
2022/01/19 13:25:16;;;;;;;;;;;7.70;99.90;;;;;;5054491;28;20276;-44
2022/01/19 13:27:42;;;;;;;;;;;7.60;99.90;;;;;;5054253;28;19939;-45
2022/01/19 13:30:12;;;;;;;;;;;7.70;99.90;;;;;;5054756;28;20271;-44
2022/01/19 13:32:39;;;;;;;;;;;7.90;99.90;;;;;;5054173;28;19917;-44
2022/01/19 13:35:06;;;;;;;;;;;8.00;99.90;;;;;;5054011;28;20272;-43
2022/01/19 13:37:31;;;;;;;;;;;8.10;99.90;;;;;;5054065;28;19909;-45
2022/01/19 13:40:02;;;;;;;;;;;8.20;99.90;;;;;;5054149;28;20011;-44
2022/01/19 13:42:40;;;;;;;;;;;8.20;99.90;;;;;;5054042;28;19913;-47
2022/01/19 13:45:09;;;;;;;;;;;8.30;99.90;;;;;;5036285;28;19916;-45
2022/01/19 13:47:52;;;;;;;;;;;8.30;99.90;;;;;;5053792;28;19909;-45
2022/01/19 13:50:17;;;;;;;;;;;8.10;99.90;;;;;;5035185;28;19909;-47
2022/01/19 13:52:43;;;;;;;;;;;8.10;99.90;;;;;;5053742;28;19917;-48
2022/01/19 13:55:15;;;;;;;;;;;8.10;99.90;;;;;;5054090;28;20014;-44
2022/01/19 13:57:41;;;;;;;;;;;8.10;99.90;;;;;;5053910;28;19912;-44
2022/01/19 14:00:08;;;;;;;;;;;8.10;99.90;;;;;;5053803;28;20457;-44
2022/01/19 14:02:33;;;;;;;;;;;8.10;99.90;;;;;;5053754;28;19909;-45
2022/01/19 14:05:03;;;;;;;;;;;8.00;99.90;;;;;;5053469;28;20363;-48
2022/01/19 14:07:28;;;;;;;;;;;7.90;99.90;;;;;;5035799;28;19913;-43
2022/01/19 14:10:03;;;;;;;;;;;8.00;99.90;;;;;;5053634;28;19944;-44
2022/01/19 14:12:29;;;;;;;;;;;8.10;99.90;;;;;;5053551;28;19921;-47
2022/01/19 14:15:00;;;;;;;;;;;8.10;99.90;;;;;;5035602;28;19909;-44
2022/01/19 14:17:29;;;;;;;;;;;8.10;99.90;;;;;;5053363;28;20313;-46
2022/01/19 14:19:55;;;;;;;;;;;8.10;99.90;;;;;;5035556;28;19909;-44
2022/01/19 14:22:21;;;;;;;;;;;8.20;99.90;;;;;;5053351;28;20478;-44
2022/01/19 14:24:47;;;;;;;;;;;8.20;99.90;;;;;;5053140;28;20019;-44
2022/01/19 14:27:18;;;;;;;;;;;8.20;99.90;;;;;;5052611;28;19931;-43
2022/01/19 14:30:12;;;;;;;;;;;8.30;99.90;;;;;;5053318;28;19975;-45
2022/01/19 14:32:49;;;;;;;;;;;8.30;99.90;;;;;;5017873;28;19928;-44
2022/01/19 14:35:24;;;;;;;;;;;8.20;99.90;;;;;;5035326;28;19916;-42
2022/01/19 14:37:55;;;;;;;;;;;8.10;99.90;;;;;;5052800;28;20000;-43
2022/01/19 14:40:20;;;;;;;;;;;8.00;99.90;;;;;;5052860;28;19921;-43
2022/01/19 14:42:48;;;;;;;;;;;7.90;99.90;;;;;;5052865;28;19909;-45
2022/01/19 14:45:20;;;;;;;;;;;8.00;99.90;;;;;;5052817;28;19915;-44
2022/01/19 14:47:46;;;;;;;;;;;8.00;99.90;;;;;;5053104;28;19978;-43
2022/01/19 14:50:19;;;;;;;;;;;8.00;99.90;;;;;;5052984;28;20335;-43
2022/01/19 14:52:44;;;;;;;;;;;8.00;99.90;;;;;;5052467;28;20010;-45
2022/01/19 14:55:10;;;;;;;;;;;7.90;99.90;;;;;;5052819;28;20300;-44
2022/01/19 14:57:35;;;;;;;;;;;7.90;99.90;;;;;;5052534;28;19916;-44
2022/01/19 15:00:03;;;;;;;;;;;7.80;99.90;;;;;;5052435;28;20004;-44
2022/01/19 15:02:29;;;;;;;;;;;7.80;99.90;;;;;;5056872;28;19909;-45
2022/01/19 15:04:54;;;;;;;;;;;7.80;99.90;;;;;;5056725;28;20378;-44
2022/01/19 15:07:20;;;;;;;;;;;8.00;99.90;;;;;;5056599;28;19928;-44
2022/01/19 15:09:46;;;;;;;;;;;8.50;99.90;;;;;;5056411;28;19909;-48
2022/01/19 15:12:11;;;;;;;;;;;9.00;99.90;;;;;;5056585;28;19963;-45
2022/01/19 15:14:37;;;;;;;;;;;9.10;99.90;;;;;;5056629;28;20007;-45
2022/01/19 15:17:02;;;;;;;;;;;8.90;99.90;;;;;;5056469;28;19963;-43
2022/01/19 15:19:28;;;;;;;;;;;8.40;99.90;;;;;;5056016;28;20043;-43
2022/01/19 15:21:53;;;;;;;;;;;8.10;99.90;;;;;;5056321;28;19909;-44
2022/01/19 15:24:19;;;;;;;;;;;7.80;99.90;;;;;;5056861;28;19920;-45
2022/01/19 15:26:46;;;;;;;;;;;7.70;99.90;;;;;;5056835;28;19932;-43
2022/01/19 15:29:13;;;;;;;;;;;7.60;99.90;;;;;;5056137;28;19916;-44
2022/01/19 15:31:38;;;;;;;;;;;7.40;99.90;;;;;;5056370;28;19920;-46
2022/01/19 15:34:04;;;;;;;;;;;7.20;99.90;;;;;;5055779;28;20004;-43
2022/01/19 15:36:30;;;;;;;;;;;7.10;99.90;;;;;;5056222;28;19913;-44
2022/01/19 15:38:56;;;;;;;;;;;7.00;99.90;;;;;;5056427;28;19944;-47
2022/01/19 15:41:22;;;;;;;;;;;6.90;99.90;;;;;;5056426;28;20283;-44
2022/01/19 15:43:47;;;;;;;;;;;6.90;99.90;;;;;;5038532;28;19913;-45
2022/01/19 15:46:13;;;;;;;;;;;6.80;99.90;;;;;;5055630;28;20355;-45
2022/01/19 15:48:39;;;;;;;;;;;6.70;99.90;;;;;;5056525;28;19909;-47
2022/01/19 15:51:04;;;;;;;;;;;6.70;99.90;;;;;;5055621;28;19908;-44
2022/01/19 15:53:31;;;;;;;;;;;6.50;99.90;;;;;;5056158;28;19956;-43
2022/01/19 15:55:59;;;;;;;;;;;6.40;99.90;;;;;;5037642;28;19909;-44
2022/01/19 15:58:24;;;;;;;;;;;6.40;99.90;;;;;;5055266;28;20315;-47